Time;durP1;ratioP1;P1;durP2;ratioP2;P2;SDS_P1;SDS_P2;PMS_P1;PMS_P2;Temp;Humidity;BMP_temperature;BMP_pressure;BME280_temperature;BME280_humidity;BME280_pressure;Samples;Min_cycle;Max_cycle;Signal;HPM_P1;HPM_P2
2023/04/14 00:02:10;;;;;;;9.43;3.80;;;;;;;4.75;81.47;100809.50;4975968;28;20036;-93
2023/04/14 00:04:36;;;;;;;7.22;3.20;;;;;;;4.74;81.00;100810.28;4959743;28;20034;-94
2023/04/14 00:07:01;;;;;;;9.30;3.20;;;;;;;4.69;80.59;100807.50;4959713;28;20026;-94
2023/04/14 00:09:27;;;;;;;7.93;3.20;;;;;;;4.68;80.76;100810.88;4960522;28;20022;-94
2023/04/14 00:11:52;;;;;;;8.32;3.30;;;;;;;4.67;81.02;100805.66;4962138;28;20054;-94
2023/04/14 00:14:17;;;;;;;7.80;3.35;;;;;;;4.65;80.36;100803.00;4964064;28;20392;-94
2023/04/14 00:16:45;;;;;;;7.05;3.55;;;;;;;4.60;81.02;100806.19;4964485;28;20022;-94
2023/04/14 00:19:10;;;;;;;7.55;2.80;;;;;;;4.51;81.34;100807.50;4963186;28;20050;-94
2023/04/14 00:21:35;;;;;;;7.05;2.88;;;;;;;4.45;81.87;100807.22;4963113;28;20428;-94
2023/04/14 00:24:01;;;;;;;5.47;2.10;;;;;;;4.37;82.94;100812.81;4963233;28;20416;-93
2023/04/14 00:26:26;;;;;;;4.90;2.28;;;;;;;4.30;82.83;100815.13;4963418;28;20499;-94
2023/04/14 00:28:51;;;;;;;6.65;2.40;;;;;;;4.21;82.92;100816.34;4961336;28;20041;-94
2023/04/14 00:31:16;;;;;;;5.32;2.38;;;;;;;4.13;83.17;100816.00;4963111;28;20074;-94
2023/04/14 00:33:42;;;;;;;8.30;2.92;;;;;;;4.10;82.99;100810.66;4962855;28;20403;-93
2023/04/14 00:36:07;;;;;;;7.10;3.08;;;;;;;4.13;83.42;100810.84;4963024;28;20022;-94
2023/04/14 00:38:32;;;;;;;7.28;3.30;;;;;;;4.14;82.92;100810.00;4964167;28;20488;-93
2023/04/14 00:40:58;;;;;;;8.45;3.85;;;;;;;4.19;82.57;100813.72;4962960;28;20522;-93
2023/04/14 00:43:23;;;;;;;11.68;4.07;;;;;;;4.18;82.22;100812.81;4961892;28;20034;-94
2023/04/14 00:45:49;;;;;;;9.93;3.45;;;;;;;4.18;82.11;100806.78;4963941;28;20030;-94
2023/04/14 00:48:16;;;;;;;10.68;3.95;;;;;;;4.18;81.91;100811.94;4962168;28;20499;-93
2023/04/14 00:50:42;;;;;;;6.53;3.00;;;;;;;4.18;82.62;100811.94;4979601;28;20058;-93
2023/04/14 00:53:08;;;;;;;6.93;2.80;;;;;;;4.13;83.09;100816.00;4964451;28;20035;-94
2023/04/14 00:55:34;;;;;;;8.00;2.78;;;;;;;4.06;83.21;100817.38;4962952;28;20057;-94
2023/04/14 00:58:00;;;;;;;5.93;2.35;;;;;;;3.94;83.15;100820.22;4961472;28;21133;-94
2023/04/14 01:00:26;;;;;;;5.80;2.75;;;;;;;3.86;83.77;100829.25;4979751;28;20065;-93
2023/04/14 01:02:52;;;;;;;8.95;2.70;;;;;;;3.82;84.50;100832.50;4963174;28;20054;-94
2023/04/14 01:05:17;;;;;;;9.43;3.15;;;;;;;3.79;85.44;100840.06;4978653;28;20462;-94
2023/04/14 01:07:43;;;;;;;8.70;3.33;;;;;;;3.73;85.64;100837.19;4979746;28;20030;-94
2023/04/14 01:10:10;;;;;;;7.97;3.58;;;;;;;3.69;85.91;100840.41;4978428;28;20038;-94
2023/04/14 01:13:06;;;;;;;9.52;3.63;;;;;;;3.64;86.14;100835.91;4979076;28;20412;-94
2023/04/14 01:15:38;;;;;;;9.05;3.92;;;;;;;3.62;86.27;100834.94;4962579;28;20057;-94
2023/04/14 01:18:22;;;;;;;8.10;4.10;;;;;;;3.67;85.92;100842.91;4961407;28;20054;-94
2023/04/14 01:20:51;;;;;;;8.23;3.88;;;;;;;3.70;85.95;100837.03;4962081;28;20023;-93
2023/04/14 01:23:22;;;;;;;11.10;4.20;;;;;;;3.69;85.63;100843.00;4979465;28;20046;-94
2023/04/14 01:26:03;;;;;;;10.35;4.05;;;;;;;3.61;85.80;100845.19;4961805;28;20048;-94
2023/04/14 01:29:06;;;;;;;6.32;3.17;;;;;;;3.53;85.33;100843.88;4977850;28;20018;-94
2023/04/14 01:31:47;;;;;;;5.80;2.90;;;;;;;3.39;85.37;100840.56;4959904;28;20038;-93
2023/04/14 01:34:21;;;;;;;5.47;2.90;;;;;;;3.29;85.86;100829.81;4962417;28;20055;-93
2023/04/14 01:36:55;;;;;;;8.38;3.55;;;;;;;3.26;86.42;100842.53;4976979;28;20019;-94
2023/04/14 01:39:25;;;;;;;8.60;3.97;;;;;;;3.27;86.46;100836.59;4962380;28;20085;-94
2023/04/14 01:41:53;;;;;;;;;;;;;;;3.39;84.70;100835.44;4978750;28;20034;-94
2023/04/14 01:44:21;;;;;;;8.05;3.92;;;;;;;3.39;86.13;100846.63;4979163;28;19917;-94
2023/04/14 01:46:49;;;;;;;8.85;4.15;;;;;;;3.40;86.43;100848.38;4962273;28;20546;-93
2023/04/14 01:49:17;;;;;;;7.93;3.97;;;;;;;3.41;85.86;100842.44;4961882;28;20109;-94
2023/04/14 01:51:43;;;;;;;7.00;3.35;;;;;;;3.42;85.81;100851.06;4961679;28;20317;-94
2023/04/14 01:54:12;;;;;;;8.82;4.05;;;;;;;3.43;85.49;100852.81;4962339;28;20520;-93
2023/04/14 01:56:39;;;;;;;8.95;3.75;;;;;;;3.40;85.54;100850.97;4961637;28;20136;-94
2023/04/14 01:59:05;;;;;;;8.05;3.72;;;;;;;3.32;86.41;100854.84;4958242;28;20034;-94
2023/04/14 02:01:32;;;;;;;9.50;4.20;;;;;;;3.29;86.97;100852.09;4960169;28;20080;-94
2023/04/14 02:04:00;;;;;;;10.48;5.00;;;;;;;3.28;86.72;100852.91;4961281;28;20535;-94
2023/04/14 02:06:27;;;;;;;8.35;4.03;;;;;;;3.29;87.11;100852.09;4959903;28;20022;-94
2023/04/14 02:08:53;;;;;;;8.10;3.60;;;;;;;3.26;86.83;100855.41;4961550;28;20034;-93
2023/04/14 02:11:19;;;;;;;7.70;3.75;;;;;;;3.23;87.32;100850.09;4960958;28;20396;-94
2023/04/14 02:13:47;;;;;;;6.47;3.53;;;;;;;3.20;87.14;100857.66;4977880;28;20037;-94
2023/04/14 02:16:14;;;;;;;9.07;3.40;;;;;;;3.22;87.34;100855.16;4962251;28;20041;-94
2023/04/14 02:18:40;;;;;;;9.55;3.53;;;;;;;3.23;86.92;100854.34;4977797;28;20054;-94
2023/04/14 02:21:07;;;;;;;11.32;4.35;;;;;;;3.27;86.60;100849.47;4961575;28;20026;-94
2023/04/14 02:23:32;;;;;;;9.50;4.00;;;;;;;3.29;86.30;100855.56;4961791;28;20035;-93
2023/04/14 02:26:08;;;;;;;9.88;4.30;;;;;;;3.31;86.20;100855.63;4960415;28;20040;-94
2023/04/14 02:28:37;;;;;;;9.50;4.00;;;;;;;3.31;86.04;100859.09;4977590;28;20041;-95
2023/04/14 02:31:07;;;;;;;11.57;4.88;;;;;;;3.30;85.97;100857.34;4962403;28;20125;-95
2023/04/14 02:33:36;;;;;;;9.10;4.13;;;;;;;3.32;86.70;100870.28;4960431;28;20510;-96
2023/04/14 02:36:08;;;;;;;9.98;3.80;;;;;;;3.29;86.34;100867.56;4962164;28;20046;-96
2023/04/14 02:38:37;;;;;;;10.20;4.15;;;;;;;3.28;86.74;100869.22;4960539;28;20114;-96
2023/04/14 02:41:10;;;;;;;10.18;4.07;;;;;;;3.27;86.83;100866.56;4979893;28;20026;-96
2023/04/14 02:43:52;;;;;;;11.10;3.95;;;;;;;3.28;86.77;100873.50;4976023;28;20105;-96
2023/04/14 02:46:20;;;;;;;10.38;4.18;;;;;;;3.26;86.33;100876.00;4962432;28;20085;-96
2023/04/14 02:48:47;;;;;;;9.20;4.10;;;;;;;3.23;85.93;100867.22;4962087;28;20038;-96
2023/04/14 02:51:15;;;;;;;11.80;4.18;;;;;;;3.22;85.94;100868.91;4977922;28;20065;-96
2023/04/14 02:53:40;;;;;;;9.27;3.90;;;;;;;3.21;86.50;100869.69;4962114;28;20022;-96
2023/04/14 02:56:07;;;;;;;9.27;4.38;;;;;;;3.22;86.10;100875.75;4961770;28;20510;-96
2023/04/14 02:58:33;;;;;;;9.70;4.50;;;;;;;3.20;86.34;100883.41;4960462;28;20030;-96
2023/04/14 03:00:59;;;;;;;10.40;4.68;;;;;;;3.21;86.18;100882.56;4960295;28;20029;-95
2023/04/14 03:03:27;;;;;;;11.85;3.70;;;;;;;3.21;86.53;100872.28;4959803;28;20034;-96
2023/04/14 03:05:53;;;;;;;9.98;4.15;;;;;;;3.21;86.30;100879.13;4959920;28;20500;-95
2023/04/14 03:08:19;;;;;;;10.38;4.47;;;;;;;3.19;86.46;100879.03;4963034;28;20022;-94
2023/04/14 03:10:46;;;;;;;9.45;3.83;;;;;;;3.18;86.89;100879.84;4961549;28;20137;-95
2023/04/14 03:13:13;;;;;;;8.45;3.80;;;;;;;3.17;87.32;100885.78;4959403;28;20424;-96
2023/04/14 03:15:39;;;;;;;10.52;4.13;;;;;;;3.18;87.71;100887.56;4961797;28;20034;-96
2023/04/14 03:18:05;;;;;;;7.82;3.47;;;;;;;3.17;87.10;100879.75;4960925;28;20050;-95
2023/04/14 03:20:32;;;;;;;9.90;4.05;;;;;;;3.15;87.80;100884.81;4957168;28;20033;-96
2023/04/14 03:23:00;;;;;;;7.82;3.53;;;;;;;3.09;87.88;100884.50;4959350;28;20035;-96
2023/04/14 03:25:31;;;;;;;8.70;3.83;;;;;;;3.03;88.89;100886.75;4959647;28;20029;-96
2023/04/14 03:27:59;;;;;;;9.07;3.60;;;;;;;2.99;88.91;100877.97;4961214;28;20030;-95
2023/04/14 03:30:29;;;;;;;8.57;4.25;;;;;;;2.98;89.07;100880.47;4959412;28;20118;-95
2023/04/14 03:32:59;;;;;;;8.70;3.90;;;;;;;3.00;88.63;100882.31;4959920;28;20040;-96
2023/04/14 03:35:27;;;;;;;11.30;3.75;;;;;;;3.01;88.91;100888.34;4959167;28;20038;-95
2023/04/14 03:37:58;;;;;;;7.95;3.60;;;;;;;3.01;88.89;100883.19;4958262;28;20033;-94
2023/04/14 03:40:30;;;;;;;7.45;3.05;;;;;;;3.03;89.18;100887.63;4957209;28;20023;-94
2023/04/14 03:42:57;;;;;;;8.07;3.38;;;;;;;3.05;89.09;100890.28;4958486;28;20029;-94
2023/04/14 03:45:24;;;;;;;9.23;3.80;;;;;;;3.01;88.78;100886.63;4975359;28;20548;-94
2023/04/14 03:47:54;;;;;;;11.25;3.85;;;;;;;3.02;88.85;100887.53;4958914;28;20053;-95
2023/04/14 03:50:22;;;;;;;9.73;3.95;;;;;;;3.01;89.34;100898.63;4959666;28;20022;-95
2023/04/14 03:52:49;;;;;;;7.13;3.58;;;;;;;2.94;89.62;100888.00;4957997;28;20031;-94
2023/04/14 03:55:17;;;;;;;11.27;4.38;;;;;;;2.94;89.57;100893.16;4975096;28;20030;-95
2023/04/14 03:57:44;;;;;;;9.65;4.00;;;;;;;2.95;89.41;100889.78;4959823;28;20031;-94
2023/04/14 04:00:11;;;;;;;10.02;4.30;;;;;;;2.99;88.99;100889.97;4958889;28;20038;-95
2023/04/14 04:02:38;;;;;;;11.07;4.65;;;;;;;2.98;88.57;100895.91;4974592;28;20379;-95
2023/04/14 04:05:06;;;;;;;11.63;4.93;;;;;;;2.99;88.51;100895.09;4976182;28;20025;-94
2023/04/14 04:07:32;;;;;;;12.55;5.40;;;;;;;2.97;88.09;100895.03;4957722;28;20066;-95
2023/04/14 04:09:59;;;;;;;11.38;5.28;;;;;;;2.97;88.12;100900.16;4960158;28;20526;-95
2023/04/14 04:12:25;;;;;;;12.43;5.15;;;;;;;3.00;88.01;100900.34;4959360;28;20038;-95
2023/04/14 04:14:50;;;;;;;11.35;4.82;;;;;;;3.01;88.25;100896.06;4958596;28;20058;-95
2023/04/14 04:17:18;;;;;;;11.00;4.72;;;;;;;3.00;87.90;100902.00;4960420;28;20027;-95
2023/04/14 04:19:45;;;;;;;10.40;4.78;;;;;;;2.97;87.80;100900.16;4960675;28;20038;-95
2023/04/14 04:22:17;;;;;;;9.00;4.50;;;;;;;2.93;88.32;100898.22;4972053;28;20034;-95
2023/04/14 04:24:44;;;;;;;13.13;4.60;;;;;;;2.89;88.69;100898.84;4961279;28;20114;-94
2023/04/14 04:27:10;;;;;;;9.65;4.10;;;;;;;2.86;89.11;100903.84;4975717;28;20034;-94
2023/04/14 04:29:37;;;;;;;8.80;4.20;;;;;;;2.78;89.67;100903.38;4959678;28;20033;-95
2023/04/14 04:32:04;;;;;;;9.30;4.50;;;;;;;2.71;89.74;100909.91;4957785;28;20027;-95
2023/04/14 04:34:31;;;;;;;8.52;4.25;;;;;;;2.71;89.88;100915.03;4958723;28;20089;-94
2023/04/14 04:36:59;;;;;;;12.43;4.55;;;;;;;2.73;90.05;100915.13;4960432;28;20453;-95
2023/04/14 04:39:25;;;;;;;9.00;4.53;;;;;;;2.71;89.72;100920.19;4960641;28;20109;-94
2023/04/14 04:42:00;;;;;;;8.77;4.20;;;;;;;2.72;89.49;100910.78;4960940;28;20077;-95
2023/04/14 04:44:25;;;;;;;9.48;4.70;;;;;;;2.71;89.30;100914.13;4959250;28;20428;-95
2023/04/14 04:46:54;;;;;;;11.52;5.10;;;;;;;2.70;89.08;100915.81;4958361;28;20050;-94
2023/04/14 04:49:21;;;;;;;9.45;4.82;;;;;;;2.67;89.33;100912.22;4958554;28;20026;-95
2023/04/14 04:51:47;;;;;;;12.13;4.65;;;;;;;2.68;89.13;100908.81;4959036;28;20038;-94
2023/04/14 04:54:12;;;;;;;9.93;4.75;;;;;;;2.72;89.29;100905.63;4960657;28;20026;-95
2023/04/14 04:56:38;;;;;;;8.88;4.60;;;;;;;2.73;89.38;100904.81;4961535;28;20037;-96
2023/04/14 04:59:03;;;;;;;11.30;4.10;;;;;;;2.71;90.07;100897.03;4963978;28;20103;-95
2023/04/14 05:01:29;;;;;;;9.68;3.97;;;;;;;2.74;89.25;100899.78;4962411;28;20474;-94
2023/04/14 05:03:55;;;;;;;10.30;4.30;;;;;;;2.74;89.36;100899.78;4963013;28;20027;-95
2023/04/14 05:06:20;;;;;;;8.23;4.03;;;;;;;2.77;89.79;100904.22;4963114;28;20030;-95
2023/04/14 05:08:45;;;;;;;10.43;3.88;;;;;;;2.78;89.35;100906.88;4962418;28;20022;-95
2023/04/14 05:11:11;;;;;;;9.38;4.22;;;;;;;2.80;89.79;100913.78;4961626;28;20058;-95
2023/04/14 05:13:36;;;;;;;11.60;4.70;;;;;;;2.79;89.34;100902.59;4963665;28;20037;-95
2023/04/14 05:16:09;;;;;;;10.82;4.72;;;;;;;2.80;89.81;100909.53;4962404;28;20392;-95
2023/04/14 05:18:35;;;;;;;10.25;4.45;;;;;;;2.80;89.94;100901.81;4960549;28;20094;-95
2023/04/14 05:21:01;;;;;;;10.95;4.30;;;;;;;2.80;89.55;100904.38;4963405;28;20030;-96
2023/04/14 05:23:27;;;;;;;7.18;3.83;;;;;;;2.78;89.49;100909.44;4963548;28;20524;-94
2023/04/14 05:25:55;;;;;;;10.35;4.45;;;;;;;2.77;89.97;100906.78;4964734;28;20022;-95
2023/04/14 05:28:21;;;;;;;12.25;4.65;;;;;;;2.78;89.69;100905.97;4961926;28;20050;-95
2023/04/14 05:30:46;;;;;;;8.82;4.35;;;;;;;2.77;89.89;100906.78;4963082;28;20113;-95
2023/04/14 05:33:11;;;;;;;8.38;3.95;;;;;;;2.79;90.79;100905.16;4961945;28;20515;-95
2023/04/14 05:35:37;;;;;;;9.88;4.18;;;;;;;2.80;91.17;100904.38;4960193;28;20125;-94
2023/04/14 05:38:02;;;;;;;9.93;4.30;;;;;;;2.82;91.42;100901.88;4981243;28;20099;-94
2023/04/14 05:40:28;;;;;;;10.98;4.55;;;;;;;2.82;91.87;100901.88;4980906;28;20030;-95
2023/04/14 05:42:54;;;;;;;10.25;4.80;;;;;;;2.76;92.97;100908.44;4963695;28;20034;-96
2023/04/14 05:45:19;;;;;;;11.65;5.07;;;;;;;2.78;92.96;100905.97;4980929;28;20027;-95
2023/04/14 05:47:44;;;;;;;13.00;5.22;;;;;;;2.80;93.50;100903.50;4979542;28;20030;-95
2023/04/14 05:50:10;;;;;;;10.73;4.45;;;;;;;2.84;93.24;100903.75;4962568;28;20161;-94
2023/04/14 05:52:35;;;;;;;12.35;4.88;;;;;;;2.92;92.91;100899.00;4963292;28;20270;-95
2023/04/14 05:55:01;;;;;;;10.77;4.40;;;;;;;2.97;92.93;100902.75;4964246;28;20018;-95
2023/04/14 05:57:26;;;;;;;10.07;4.93;;;;;;;3.01;93.23;100908.94;4963385;28;20045;-95
2023/04/14 05:59:51;;;;;;;11.20;4.97;;;;;;;3.02;93.06;100898.72;4961819;28;20125;-95
2023/04/14 06:02:17;;;;;;;11.13;4.55;;;;;;;3.05;93.37;100905.72;4958282;28;21083;-95
2023/04/14 06:04:42;;;;;;;10.90;5.00;;;;;;;3.11;93.99;100903.47;4962527;28;20685;-95
2023/04/14 06:07:07;;;;;;;11.43;4.85;;;;;;;3.18;94.17;100903.00;4962494;28;20027;-94
2023/04/14 06:09:33;;;;;;;13.20;5.80;;;;;;;3.28;94.38;100913.00;4963057;28;20027;-95
2023/04/14 06:11:58;;;;;;;13.18;5.47;;;;;;;3.39;95.15;100902.38;4961545;28;20606;-94
2023/04/14 06:14:24;;;;;;;13.38;5.97;;;;;;;3.52;96.38;100902.25;4961959;28;20507;-95
2023/04/14 06:16:49;;;;;;;12.82;5.35;;;;;;;3.68;97.16;100901.38;4961596;28;20392;-95
2023/04/14 06:19:17;;;;;;;17.33;5.70;;;;;;;3.86;97.51;100906.59;4961094;28;20510;-94
2023/04/14 06:21:42;;;;;;;11.73;5.05;;;;;;;4.06;97.45;100904.16;4961787;28;20029;-95
2023/04/14 06:24:07;;;;;;;12.18;4.88;;;;;;;4.25;97.22;100906.84;4978739;28;20035;-94
2023/04/14 06:26:33;;;;;;;15.48;5.32;;;;;;;4.42;97.02;100914.53;4963182;28;20061;-95
2023/04/14 06:28:59;;;;;;;13.20;5.88;;;;;;;4.56;95.83;100898.03;4962067;28;20622;-95
2023/04/14 06:31:24;;;;;;;12.90;5.00;;;;;;;4.71;95.43;100895.31;4961851;28;20022;-95
2023/04/14 06:33:51;;;;;;;10.57;3.67;;;;;;;4.85;94.36;100896.88;4959353;28;20369;-94
2023/04/14 06:36:17;;;;;;;12.80;4.53;;;;;;;4.98;93.77;100888.00;4961455;28;20061;-94
2023/04/14 06:38:43;;;;;;;13.90;4.25;;;;;;;5.13;92.45;100894.72;4961819;28;20026;-94
2023/04/14 06:41:08;;;;;;;10.05;4.22;;;;;;;5.27;91.77;100887.56;4961937;28;20031;-95
2023/04/14 06:43:33;;;;;;;10.85;4.35;;;;;;;5.41;91.63;100889.09;4978338;28;20041;-94
2023/04/14 06:45:58;;;;;;;8.68;3.75;;;;;;;5.55;89.75;100892.31;4960677;28;20365;-94
2023/04/14 06:48:24;;;;;;;11.02;3.80;;;;;;;5.69;89.50;100891.22;4960203;28;20038;-94
2023/04/14 06:50:54;;;;;;;9.63;3.85;;;;;;;5.85;88.94;100886.69;4978331;28;21159;-94
2023/04/14 06:53:20;;;;;;;9.77;3.60;;;;;;;5.93;87.65;100886.19;4961518;28;20542;-94
2023/04/14 06:55:47;;;;;;;8.57;3.65;;;;;;;6.01;87.86;100880.50;4978696;28;20080;-94
2023/04/14 06:58:12;;;;;;;7.43;3.60;;;;;;;6.13;89.05;100878.47;4961144;28;20086;-94
2023/04/14 07:00:37;;;;;;;11.85;4.55;;;;;;;6.29;88.03;100876.53;4959575;28;20440;-94
2023/04/14 07:03:03;;;;;;;10.43;4.82;;;;;;;6.44;88.60;100870.28;4977056;28;20038;-94
2023/04/14 07:05:28;;;;;;;9.23;4.28;;;;;;;6.63;87.63;100876.16;4959891;28;20026;-94
2023/04/14 07:07:53;;;;;;;13.00;4.50;;;;;;;6.82;87.58;100869.13;4958851;28;20149;-94
2023/04/14 07:10:19;;;;;;;7.97;3.42;;;;;;;7.00;85.87;100867.25;4961151;28;20447;-94
2023/04/14 07:12:44;;;;;;;8.20;3.60;;;;;;;7.16;85.22;100867.84;4977346;28;20026;-94
2023/04/14 07:15:10;;;;;;;6.95;3.25;;;;;;;7.29;83.79;100870.06;4961209;28;20054;-95
2023/04/14 07:17:35;;;;;;;8.88;3.95;;;;;;;7.43;83.57;100867.97;4960573;28;20060;-94
2023/04/14 07:20:02;;;;;;;7.82;3.80;;;;;;;7.60;83.66;100871.19;4957973;28;20516;-94
2023/04/14 07:22:27;;;;;;;7.35;3.40;;;;;;;7.74;82.33;100869.09;4976629;28;20030;-95
2023/04/14 07:24:53;;;;;;;11.10;3.90;;;;;;;7.81;81.39;100865.91;4959959;28;20069;-94
2023/04/14 07:27:18;;;;;;;9.77;4.35;;;;;;;7.89;83.02;100860.97;4977892;28;20678;-94
2023/04/14 07:29:43;;;;;;;10.20;3.90;;;;;;;7.96;81.05;100869.00;4975872;28;20034;-95
2023/04/14 07:32:10;;;;;;;9.25;4.10;;;;;;;7.96;78.83;100862.94;4960336;28;20034;-94
2023/04/14 07:34:36;;;;;;;7.88;3.90;;;;;;;7.97;79.58;100856.94;4959956;28;20396;-94
2023/04/14 07:37:01;;;;;;;8.40;3.90;;;;;;;8.06;80.44;100858.97;4961316;28;20031;-94
2023/04/14 07:39:26;;;;;;;10.38;4.00;;;;;;;8.16;79.36;100854.13;4958698;28;20030;-95
2023/04/14 07:41:52;;;;;;;9.13;3.70;;;;;;;8.28;79.05;100851.03;4978365;28;20030;-94
2023/04/14 07:44:17;;;;;;;7.05;3.40;;;;;;;8.43;78.99;100840.28;4962498;28;20022;-94
2023/04/14 07:46:42;;;;;;;7.93;3.85;;;;;;;8.57;78.16;100839.88;4960529;28;20142;-94
2023/04/14 07:49:08;;;;;;;6.97;3.10;;;;;;;8.69;75.19;100830.75;4959767;28;20484;-94
2023/04/14 07:51:33;;;;;;;10.77;3.80;;;;;;;8.81;77.04;100840.63;4959810;28;20037;-95
2023/04/14 07:53:58;;;;;;;6.00;3.22;;;;;;;8.94;74.93;100843.63;4959486;28;20113;-95
2023/04/14 07:56:24;;;;;;;6.47;3.10;;;;;;;9.03;74.37;100836.09;4977257;28;20176;-94
2023/04/14 07:58:49;;;;;;;8.07;2.97;;;;;;;9.07;73.10;100843.16;4960434;28;20370;-93
2023/04/14 08:01:15;;;;;;;6.20;2.80;;;;;;;9.09;72.82;100848.38;4976782;28;20513;-94
2023/04/14 08:03:41;;;;;;;8.65;3.08;;;;;;;9.13;72.80;100843.31;4961035;28;20023;-95
2023/04/14 08:06:06;;;;;;;8.23;2.60;;;;;;;9.26;73.13;100846.28;4958659;28;20026;-94
2023/04/14 08:08:33;;;;;;;6.03;2.28;;;;;;;9.36;70.60;100845.72;4979116;28;20033;-95
2023/04/14 08:10:58;;;;;;;6.05;2.72;;;;;;;9.43;72.17;100846.75;4959593;28;20058;-94
2023/04/14 08:13:23;;;;;;;6.72;2.65;;;;;;;9.49;70.79;100842.63;4978166;28;20460;-94
2023/04/14 08:15:49;;;;;;;5.93;2.33;;;;;;;9.65;70.95;100843.03;4978018;28;20096;-95
2023/04/14 08:18:14;;;;;;;6.10;2.20;;;;;;;9.77;70.01;100842.50;4959422;28;20408;-95
2023/04/14 08:20:40;;;;;;;4.97;2.10;;;;;;;9.86;71.97;100843.63;4959253;28;20115;-95
2023/04/14 08:23:05;;;;;;;5.25;2.33;;;;;;;9.99;70.18;100844.78;4976882;28;20519;-95
2023/04/14 08:25:31;;;;;;;5.93;2.20;;;;;;;10.07;69.22;100832.88;4959112;28;20042;-96
2023/04/14 08:27:56;;;;;;;5.30;2.13;;;;;;;10.18;68.31;100840.97;4975834;28;20511;-95
2023/04/14 08:30:21;;;;;;;4.88;1.88;;;;;;;10.23;66.05;100834.13;4962545;28;20035;-95
2023/04/14 08:32:46;;;;;;;5.05;1.63;;;;;;;10.27;67.46;100835.09;4979885;28;20057;-95
2023/04/14 08:35:12;;;;;;;6.63;1.90;;;;;;;10.32;65.36;100836.09;4963563;28;20089;-96
2023/04/14 08:37:37;;;;;;;6.60;1.90;;;;;;;10.43;68.54;100831.19;4964007;28;20503;-95
2023/04/14 08:40:03;;;;;;;6.07;1.75;;;;;;;10.64;64.83;100837.75;4963090;28;20042;-94
2023/04/14 08:42:29;;;;;;;6.03;1.70;;;;;;;10.69;64.33;100834.41;4963185;28;20116;-95
2023/04/14 08:44:55;;;;;;;6.03;1.70;;;;;;;10.67;62.54;100832.59;4962385;28;20030;-94
2023/04/14 08:47:21;;;;;;;6.55;1.85;;;;;;;10.72;62.66;100836.19;4962806;28;20610;-96
2023/04/14 08:50:03;;;;;;;5.15;1.80;;;;;;;10.82;63.97;100832.94;4963044;28;20026;-94
2023/04/14 08:52:30;;;;;;;5.07;1.48;;;;;;;10.92;60.33;100834.91;4980032;28;20030;-95
2023/04/14 08:54:59;;;;;;;5.10;1.50;;;;;;;10.98;63.78;100835.88;4963873;28;20149;-94
2023/04/14 08:57:25;;;;;;;5.20;1.50;;;;;;;11.04;60.41;100844.72;4962469;28;20129;-94
2023/04/14 08:59:51;;;;;;;6.18;1.70;;;;;;;11.01;61.35;100835.94;4980658;28;20073;-95
2023/04/14 09:02:17;;;;;;;5.45;1.80;;;;;;;11.05;61.31;100840.38;4962594;28;20113;-95
2023/04/14 09:04:44;;;;;;;5.72;1.55;;;;;;;11.13;61.53;100836.22;4978991;28;20018;-95
2023/04/14 09:07:10;;;;;;;7.30;1.90;;;;;;;11.28;60.66;100830.44;4980828;28;20098;-95
2023/04/14 09:09:36;;;;;;;6.15;1.95;;;;;;;11.38;62.29;100837.59;4962912;28;20030;-95
2023/04/14 09:12:02;;;;;;;5.18;1.85;;;;;;;11.43;61.34;100822.03;4980396;28;20381;-95
2023/04/14 09:14:28;;;;;;;6.10;1.60;;;;;;;11.53;61.95;100826.59;4963419;28;20027;-95
2023/04/14 09:16:55;;;;;;;4.45;1.50;;;;;;;11.60;61.25;100828.47;4978413;28;20560;-95
2023/04/14 09:19:21;;;;;;;6.55;1.73;;;;;;;11.65;60.67;100831.16;4961684;28;20049;-95
2023/04/14 09:21:47;;;;;;;5.18;1.80;;;;;;;11.66;60.04;100825.97;4980662;28;20408;-95
2023/04/14 09:24:16;;;;;;;5.53;1.80;;;;;;;11.65;60.14;100828.56;4963142;28;20049;-95
2023/04/14 09:26:42;;;;;;;4.03;1.60;;;;;;;11.71;58.60;100825.19;4980221;28;20076;-95
2023/04/14 09:29:07;;;;;;;5.45;1.90;;;;;;;11.76;58.87;100816.59;4962162;28;20019;-95
2023/04/14 09:31:33;;;;;;;4.63;1.55;;;;;;;11.91;61.37;100818.56;4979128;28;20115;-95
2023/04/14 09:33:59;;;;;;;6.80;2.00;;;;;;;11.95;57.77;100817.81;4960202;28;20035;-95
2023/04/14 09:36:26;;;;;;;6.05;1.60;;;;;;;12.01;59.76;100804.00;4962200;28;20033;-95
2023/04/14 09:38:52;;;;;;;5.90;1.83;;;;;;;12.23;61.10;100813.06;4960994;28;20503;-96
2023/04/14 09:41:22;;;;;;;5.25;2.00;;;;;;;12.25;58.01;100802.63;4961937;28;20022;-95
2023/04/14 09:43:48;;;;;;;5.47;1.88;;;;;;;12.32;59.76;100805.34;4961126;28;20031;-95
2023/04/14 09:46:16;;;;;;;5.95;1.90;;;;;;;12.41;56.90;100803.75;4962386;28;20019;-94
2023/04/14 09:48:53;;;;;;;5.75;1.55;;;;;;;12.32;56.75;100800.13;4957555;28;20045;-94
2023/04/14 09:51:27;;;;;;;4.35;1.60;;;;;;;12.06;58.74;100802.31;4962112;28;20183;-95
2023/04/14 09:53:53;;;;;;;5.50;1.80;;;;;;;11.83;60.35;100800.19;4961291;28;20018;-95
2023/04/14 09:56:20;;;;;;;6.25;1.70;;;;;;;11.97;59.91;100794.34;4961149;28;20031;-95
2023/04/14 09:58:45;;;;;;;5.55;1.58;;;;;;;12.08;58.76;100784.97;4976680;28;20022;-94
2023/04/14 10:01:11;;;;;;;3.47;1.40;;;;;;;12.30;59.43;100780.09;4962425;28;20036;-96
2023/04/14 10:03:42;;;;;;;5.68;2.03;;;;;;;12.57;57.85;100784.84;4958398;28;20061;-95
2023/04/14 10:06:15;;;;;;;5.40;1.80;;;;;;;12.74;56.61;100786.81;4977391;28;20076;-96
2023/04/14 10:08:43;;;;;;;5.35;1.92;;;;;;;12.79;57.52;100786.00;4961520;28;20033;-95
2023/04/14 10:11:17;;;;;;;6.80;2.10;;;;;;;12.63;55.20;100784.94;4961025;28;20435;-95
2023/04/14 10:13:44;;;;;;;5.70;2.03;;;;;;;12.58;56.51;100785.72;4962254;28;20034;-95
2023/04/14 10:16:10;;;;;;;5.47;1.90;;;;;;;12.77;58.55;100782.47;4961298;28;20026;-96
2023/04/14 10:18:36;;;;;;;6.90;1.80;;;;;;;12.77;53.79;100771.16;4961336;28;20050;-96
2023/04/14 10:21:02;;;;;;;4.03;1.80;;;;;;;12.59;55.73;100767.44;4961832;28;20039;-94
2023/04/14 10:23:30;;;;;;;8.00;1.90;;;;;;;12.43;58.40;100757.63;4960613;28;20042;-95
2023/04/14 10:25:56;;;;;;;5.60;1.98;;;;;;;12.63;57.68;100764.00;4978307;28;20030;-96
2023/04/14 10:28:22;;;;;;;4.70;1.50;;;;;;;12.96;56.79;100760.09;4960997;28;20038;-96
2023/04/14 10:30:53;;;;;;;3.85;1.65;;;;;;;13.22;54.42;100759.50;4961816;28;20062;-96
2023/04/14 10:33:18;;;;;;;5.95;2.10;;;;;;;13.29;53.88;100766.56;4979204;28;20026;-95
2023/04/14 10:35:46;;;;;;;4.35;1.70;;;;;;;13.37;51.97;100754.47;4961319;28;20026;-95
2023/04/14 10:38:13;;;;;;;5.75;1.70;;;;;;;13.19;54.45;100757.75;4960612;28;20030;-95
2023/04/14 10:40:45;;;;;;;5.85;1.63;;;;;;;13.14;54.07;100755.94;4977928;28;20023;-96
2023/04/14 10:43:11;;;;;;;3.90;1.60;;;;;;;13.11;52.40;100755.91;4977158;28;20431;-95
2023/04/14 10:45:52;;;;;;;6.57;1.80;;;;;;;12.81;54.84;100752.03;4978613;28;20341;-95
2023/04/14 10:48:18;;;;;;;5.18;2.22;;;;;;;12.62;55.91;100745.69;4977690;28;20026;-96
2023/04/14 10:50:47;;;;;;;5.18;1.63;;;;;;;12.72;56.32;100741.47;4961145;28;20026;-96
2023/04/14 10:53:13;;;;;;;8.05;2.05;;;;;;;12.95;55.45;100744.38;4960294;28;20882;-96
2023/04/14 10:55:45;;;;;;;5.40;1.70;;;;;;;13.19;53.73;100739.44;4958752;28;21080;-96
2023/04/14 10:58:18;;;;;;;4.80;1.85;;;;;;;13.33;53.70;100744.78;4958534;28;20033;-96
2023/04/14 11:00:43;;;;;;;3.97;1.40;;;;;;;13.17;51.78;100735.03;4977314;28;20507;-95
2023/04/14 11:03:10;;;;;;;5.35;1.83;;;;;;;13.12;54.19;100736.72;4975739;28;20034;-95
2023/04/14 11:05:47;;;;;;;4.35;1.55;;;;;;;13.32;53.21;100736.94;4959385;28;20034;-96
2023/04/14 11:08:14;;;;;;;6.05;1.50;;;;;;;13.47;53.78;100723.16;4962581;28;20040;-96
2023/04/14 11:10:45;;;;;;;7.03;1.90;;;;;;;13.61;51.81;100721.53;4961683;28;20108;-96
2023/04/14 11:13:11;;;;;;;4.57;1.73;;;;;;;13.65;52.34;100723.31;4976360;28;20061;-95
2023/04/14 11:15:48;;;;;;;3.97;1.50;;;;;;;13.84;53.09;100713.03;4976515;28;20058;-96
2023/04/14 11:18:16;;;;;;;5.97;1.80;;;;;;;14.09;51.28;100722.81;4976779;28;20078;-96
2023/04/14 11:20:43;;;;;;;4.75;1.80;;;;;;;14.23;48.87;100717.66;4976979;28;20023;-96
2023/04/14 11:23:11;;;;;;;5.00;1.63;;;;;;;14.21;48.83;100710.69;4960637;28;20030;-96
2023/04/14 11:25:39;;;;;;;5.18;1.70;;;;;;;14.10;49.61;100723.69;4979007;28;20029;-96
2023/04/14 11:28:04;;;;;;;4.82;1.92;;;;;;;14.08;50.66;100721.06;4979233;28;20027;-96
2023/04/14 11:30:32;;;;;;;5.53;2.35;;;;;;;14.08;48.59;100710.56;4960984;28;20050;-96